createdAt,value
2019-03-27T00:00:40.959Z,1021.40
2019-03-27T00:01:40.972Z,1021.37
2019-03-27T00:02:40.935Z,1021.35
2019-03-27T00:03:40.927Z,1021.37
2019-03-27T00:04:40.913Z,1021.37
2019-03-27T00:05:40.904Z,1021.42
2019-03-27T00:06:40.917Z,1021.35
2019-03-27T00:07:40.881Z,1021.37
2019-03-27T00:08:40.870Z,1021.39
2019-03-27T00:09:40.859Z,1021.37
2019-03-27T00:10:40.848Z,1021.38
2019-03-27T00:11:40.874Z,1021.40
2019-03-27T00:12:40.827Z,1021.41
2019-03-27T00:13:40.816Z,1021.38
2019-03-27T00:14:40.805Z,1021.45
2019-03-27T00:15:40.798Z,1021.43
2019-03-27T00:16:40.787Z,1021.44
2019-03-27T00:17:40.797Z,1021.44
2019-03-27T00:18:40.766Z,1021.45
2019-03-27T00:19:40.750Z,1021.47
2019-03-27T00:20:40.741Z,1021.44
2019-03-27T00:21:40.757Z,1021.48
2019-03-27T00:22:40.744Z,1021.47
2019-03-27T00:23:40.714Z,1021.46
2019-03-27T00:24:40.697Z,1021.44
2019-03-27T00:25:40.688Z,1021.47
2019-03-27T00:26:40.675Z,1021.44
2019-03-27T00:27:40.701Z,1021.49
2019-03-27T00:28:40.653Z,1021.45
2019-03-27T00:29:40.642Z,1021.46
2019-03-27T00:30:40.632Z,1021.43
2019-03-27T00:31:40.621Z,1021.43
2019-03-27T00:32:40.609Z,1021.49
2019-03-27T00:33:40.636Z,1021.48
2019-03-27T00:34:40.587Z,1021.49
2019-03-27T00:35:40.583Z,1021.49
2019-03-27T00:36:40.569Z,1021.51
2019-03-27T00:37:40.554Z,1021.54
2019-03-27T00:38:40.543Z,1021.45
2019-03-27T00:39:40.559Z,1021.47
2019-03-27T00:40:40.521Z,1021.45
2019-03-27T00:41:40.512Z,1021.44
2019-03-27T00:42:40.500Z,1021.45
2019-03-27T00:43:40.487Z,1021.41
2019-03-27T00:44:40.504Z,1021.48
2019-03-27T00:45:40.466Z,1021.44
2019-03-27T00:46:40.458Z,1021.41
2019-03-27T00:47:40.449Z,1021.43
2019-03-27T00:48:40.436Z,1021.41
2019-03-27T00:49:40.461Z,1021.45
2019-03-27T00:50:40.414Z,1021.40
2019-03-27T00:51:40.401Z,1021.46
2019-03-27T00:52:40.391Z,1021.40
2019-03-27T00:53:40.381Z,1021.38
2019-03-27T00:54:40.410Z,1021.41
2019-03-27T00:55:40.385Z,1021.47
2019-03-27T00:56:40.349Z,1021.44
2019-03-27T00:57:40.336Z,1021.43
2019-03-27T00:58:40.326Z,1021.43
2019-03-27T00:59:40.315Z,1021.40
2019-03-27T01:00:40.331Z,1021.36
2019-03-27T01:01:40.294Z,1021.41
2019-03-27T01:02:40.284Z,1021.36
2019-03-27T01:03:40.272Z,1021.38
2019-03-27T01:04:40.262Z,1021.43
2019-03-27T01:05:40.276Z,1021.45
2019-03-27T01:06:40.239Z,1021.40
2019-03-27T01:07:40.231Z,1021.42
2019-03-27T01:08:40.216Z,1021.42
2019-03-27T01:09:40.206Z,1021.41
2019-03-27T01:10:40.220Z,1021.40
2019-03-27T01:11:40.183Z,1021.39
2019-03-27T01:12:40.174Z,1021.40
2019-03-27T01:13:40.250Z,1021.38
2019-03-27T01:14:40.152Z,1021.38
2019-03-27T01:15:40.433Z,1021.33
2019-03-27T01:16:40.144Z,1021.33
2019-03-27T01:17:40.122Z,1021.32
2019-03-27T01:18:40.112Z,1021.34
2019-03-27T01:19:40.098Z,1021.31
2019-03-27T01:20:40.084Z,1021.29
2019-03-27T01:21:40.100Z,1021.28
2019-03-27T01:22:40.064Z,1021.34
2019-03-27T01:23:40.057Z,1021.36
2019-03-27T01:24:40.042Z,1021.37
2019-03-27T01:25:40.033Z,1021.37
2019-03-27T01:26:40.064Z,1021.36
2019-03-27T01:27:40.010Z,1021.39
2019-03-27T01:28:39.998Z,1021.37
2019-03-27T01:29:39.991Z,1021.38
2019-03-27T01:30:39.977Z,1021.37
2019-03-27T01:31:39.966Z,1021.38
2019-03-27T01:32:39.980Z,1021.34
2019-03-27T01:33:39.945Z,1021.37
2019-03-27T01:34:39.934Z,1021.37
2019-03-27T01:35:39.925Z,1021.41
2019-03-27T01:36:39.911Z,1021.33
2019-03-27T01:37:39.939Z,1021.36
2019-03-27T01:38:39.888Z,1021.40
2019-03-27T01:39:39.881Z,1021.41
2019-03-27T01:40:39.868Z,1021.40
2019-03-27T01:41:39.859Z,1021.36
2019-03-27T01:42:39.846Z,1021.42
2019-03-27T01:43:39.873Z,1021.38
2019-03-27T01:44:39.826Z,1021.36
2019-03-27T01:45:52.161Z,1021.38
2019-03-27T01:46:40.801Z,1021.44
2019-03-27T01:47:39.799Z,1021.44
2019-03-27T01:48:39.781Z,1021.44
2019-03-27T01:49:39.795Z,1021.41
2019-03-27T01:50:39.760Z,1021.47
2019-03-27T01:51:39.750Z,1021.47
2019-03-27T01:52:39.737Z,1021.45
2019-03-27T01:53:39.727Z,1021.47
2019-03-27T01:54:39.741Z,1021.47
2019-03-27T01:55:39.707Z,1021.47
2019-03-27T01:56:39.694Z,1021.47
2019-03-27T01:57:39.686Z,1021.52
2019-03-27T01:58:39.672Z,1021.51
2019-03-27T01:59:39.698Z,1021.51
2019-03-27T02:00:39.650Z,1021.54
2019-03-27T02:01:39.644Z,1021.52
2019-03-27T02:02:39.700Z,1021.49
2019-03-27T02:03:39.619Z,1021.53
2019-03-27T02:04:39.605Z,1021.53
2019-03-27T02:05:39.619Z,1021.51
2019-03-27T02:06:39.585Z,1021.54
2019-03-27T02:07:39.591Z,1021.56
2019-03-27T02:08:39.560Z,1021.56
2019-03-27T02:09:39.556Z,1021.49
2019-03-27T02:10:39.568Z,1021.51
2019-03-27T02:11:39.530Z,1021.51
2019-03-27T02:12:39.522Z,1021.51
2019-03-27T02:13:39.508Z,1021.53
2019-03-27T02:14:39.535Z,1021.53
2019-03-27T02:15:39.526Z,1021.53
2019-03-27T02:16:39.474Z,1021.52
2019-03-27T02:17:39.464Z,1021.49
2019-03-27T02:18:39.452Z,1021.52
2019-03-27T02:19:39.442Z,1021.52
2019-03-27T02:20:39.431Z,1021.46
2019-03-27T02:21:39.502Z,1021.47
2019-03-27T02:22:39.410Z,1021.46
2019-03-27T02:23:39.399Z,1021.46
2019-03-27T02:24:39.388Z,1021.49
2019-03-27T02:25:39.376Z,1021.50
2019-03-27T02:26:39.397Z,1021.52
2019-03-27T02:27:39.354Z,1021.49
2019-03-27T02:28:39.344Z,1021.52
2019-03-27T02:29:39.334Z,1021.50
2019-03-27T02:30:39.432Z,1021.52
2019-03-27T02:31:39.349Z,1021.54
2019-03-27T02:32:39.302Z,1021.49
2019-03-27T02:33:39.290Z,1021.47
2019-03-27T02:34:39.279Z,1021.46
2019-03-27T02:35:39.282Z,1021.47
2019-03-27T02:36:39.258Z,1021.47
2019-03-27T02:37:39.285Z,1021.48
2019-03-27T02:38:39.236Z,1021.45
2019-03-27T02:39:39.225Z,1021.44
2019-03-27T02:40:39.234Z,1021.50
2019-03-27T02:41:39.206Z,1021.48
2019-03-27T02:42:39.194Z,1021.41
2019-03-27T02:43:39.207Z,1021.48
2019-03-27T02:44:39.178Z,1021.45
2019-03-27T02:45:39.159Z,1021.44
2019-03-27T02:46:39.153Z,1021.45
2019-03-27T02:47:39.147Z,1021.43
2019-03-27T02:48:39.165Z,1021.41
2019-03-27T02:49:39.126Z,1021.43
2019-03-27T02:50:39.104Z,1021.40
2019-03-27T02:51:39.095Z,1021.43
2019-03-27T02:52:39.083Z,1021.41
2019-03-27T02:53:39.076Z,1021.46
2019-03-27T02:54:39.088Z,1021.48
2019-03-27T02:55:39.051Z,1021.48
2019-03-27T02:56:39.039Z,1021.52
2019-03-27T02:57:39.032Z,1021.54
2019-03-27T02:58:39.020Z,1021.53
2019-03-27T02:59:39.043Z,1021.56
2019-03-27T03:00:38.995Z,1021.53
2019-03-27T03:01:38.986Z,1021.59
2019-03-27T03:02:39.019Z,1021.55
2019-03-27T03:03:38.967Z,1021.57
2019-03-27T03:04:38.953Z,1021.57
2019-03-27T03:05:38.963Z,1021.59
2019-03-27T03:06:38.935Z,1021.60
2019-03-27T03:07:38.919Z,1021.56
2019-03-27T03:08:38.916Z,1021.59
2019-03-27T03:09:38.902Z,1021.54
2019-03-27T03:10:38.925Z,1021.54
2019-03-27T03:11:38.877Z,1021.55
2019-03-27T03:12:38.865Z,1021.56
2019-03-27T03:13:38.854Z,1021.58
2019-03-27T03:14:38.844Z,1021.56
2019-03-27T03:15:38.836Z,1021.55
2019-03-27T03:16:42.587Z,1021.54
2019-03-27T03:17:38.829Z,1021.49
2019-03-27T03:18:38.799Z,1021.56
2019-03-27T03:19:38.788Z,1021.55
2019-03-27T03:20:38.777Z,1021.52
2019-03-27T03:21:38.805Z,1021.51
2019-03-27T03:22:38.758Z,1021.54
2019-03-27T03:23:38.745Z,1021.54
2019-03-27T03:24:38.734Z,1021.51
2019-03-27T03:25:38.724Z,1021.55
2019-03-27T03:26:38.721Z,1021.53
2019-03-27T03:27:38.737Z,1021.62
2019-03-27T03:28:38.702Z,1021.59
2019-03-27T03:29:38.801Z,1021.56
2019-03-27T03:30:38.691Z,1021.58
2019-03-27T03:31:38.664Z,1021.57
2019-03-27T03:32:38.671Z,1021.63
2019-03-27T03:33:38.661Z,1021.61
2019-03-27T03:34:38.626Z,1021.58
2019-03-27T03:35:38.612Z,1021.59
2019-03-27T03:36:38.610Z,1021.58
2019-03-27T03:37:38.602Z,1021.62
2019-03-27T03:38:38.618Z,1021.61
2019-03-27T03:39:38.570Z,1021.64
2019-03-27T03:40:38.558Z,1021.64
2019-03-27T03:41:38.549Z,1021.67
2019-03-27T03:42:38.539Z,1021.65
2019-03-27T03:43:38.527Z,1021.70
2019-03-27T03:44:38.552Z,1021.74
2019-03-27T03:45:38.503Z,1021.72
2019-03-27T03:46:38.496Z,1021.73
2019-03-27T03:47:38.487Z,1021.76
2019-03-27T03:48:38.480Z,1021.76
2019-03-27T03:49:38.463Z,1021.75
2019-03-27T03:50:38.492Z,1021.77
2019-03-27T03:51:38.439Z,1021.78
2019-03-27T03:52:38.442Z,1021.83
2019-03-27T03:53:38.418Z,1021.80
2019-03-27T03:54:38.413Z,1021.81
2019-03-27T03:55:38.398Z,1021.81
2019-03-27T03:56:38.416Z,1021.83
2019-03-27T03:57:38.375Z,1021.86
2019-03-27T03:58:38.362Z,1021.82
2019-03-27T03:59:38.352Z,1021.84
2019-03-27T04:00:38.341Z,1021.84
2019-03-27T04:01:38.354Z,1021.86
2019-03-27T04:02:38.321Z,1021.85
2019-03-27T04:03:38.312Z,1021.85
2019-03-27T04:04:38.299Z,1021.84
2019-03-27T04:05:38.289Z,1021.85
2019-03-27T04:06:38.312Z,1021.89
2019-03-27T04:07:38.269Z,1021.87
2019-03-27T04:08:38.260Z,1021.85
2019-03-27T04:09:38.245Z,1021.81
2019-03-27T04:10:38.232Z,1021.84
2019-03-27T04:11:38.223Z,1021.88
2019-03-27T04:12:38.235Z,1021.81
2019-03-27T04:13:38.205Z,1021.86
2019-03-27T04:14:38.190Z,1021.83
2019-03-27T04:15:38.178Z,1021.79
2019-03-27T04:16:38.174Z,1021.78
2019-03-27T04:17:38.269Z,1021.80
2019-03-27T04:18:38.151Z,1021.85
2019-03-27T04:19:38.153Z,1021.81
2019-03-27T04:20:38.125Z,1021.85
2019-03-27T04:21:38.116Z,1021.84
2019-03-27T04:22:38.122Z,1021.90
2019-03-27T04:23:38.116Z,1021.89
2019-03-27T04:24:38.210Z,1021.90
2019-03-27T04:26:06.901Z,1021.96
2019-03-27T04:26:39.058Z,1021.97
2019-03-27T04:27:38.046Z,1021.97
2019-03-27T04:28:38.063Z,1021.94
2019-03-27T04:29:38.032Z,1021.97
2019-03-27T04:30:38.017Z,1021.95
2019-03-27T04:31:38.010Z,1021.96
2019-03-27T04:32:38.032Z,1021.98
2019-03-27T04:33:38.011Z,1022.00
2019-03-27T04:34:37.974Z,1022.02
2019-03-27T04:35:37.964Z,1022.03
2019-03-27T04:36:37.950Z,1022.09
2019-03-27T04:37:37.940Z,1022.04
2019-03-27T04:38:37.969Z,1022.07
2019-03-27T04:39:37.918Z,1022.10
2019-03-27T04:40:37.914Z,1022.10
2019-03-27T04:41:37.898Z,1022.08
2019-03-27T04:42:37.887Z,1022.06
2019-03-27T04:43:37.876Z,1022.10
2019-03-27T04:44:37.895Z,1022.12
2019-03-27T04:45:37.857Z,1022.11
2019-03-27T04:46:37.845Z,1022.13
2019-03-27T04:47:37.832Z,1022.09
2019-03-27T04:48:37.828Z,1022.13
2019-03-27T04:49:37.849Z,1022.15
2019-03-27T04:50:37.800Z,1022.14
2019-03-27T04:51:37.789Z,1022.11
2019-03-27T04:52:37.784Z,1022.16
2019-03-27T04:53:37.768Z,1022.14
2019-03-27T04:54:37.759Z,1022.12
2019-03-27T04:55:37.784Z,1022.13
2019-03-27T04:56:37.737Z,1022.14
2019-03-27T04:57:37.728Z,1022.17
2019-03-27T04:58:37.716Z,1022.13
2019-03-27T04:59:37.704Z,1022.18
2019-03-27T05:00:37.694Z,1022.16
2019-03-27T05:01:37.720Z,1022.18
2019-03-27T05:02:37.672Z,1022.20
2019-03-27T05:03:37.662Z,1022.16
2019-03-27T05:04:37.651Z,1022.19
2019-03-27T05:05:37.643Z,1022.22
2019-03-27T05:06:37.630Z,1022.21
2019-03-27T05:07:37.655Z,1022.24
2019-03-27T05:08:37.608Z,1022.26
2019-03-27T05:09:37.599Z,1022.24
2019-03-27T05:10:37.588Z,1022.27
2019-03-27T05:11:37.579Z,1022.29
2019-03-27T05:12:38.846Z,1022.31
2019-03-27T05:13:37.592Z,1022.28
2019-03-27T05:14:37.545Z,1022.30
2019-03-27T05:15:37.532Z,1022.32
2019-03-27T05:16:37.523Z,1022.28
2019-03-27T05:17:45.933Z,1022.39
2019-03-27T05:18:38.544Z,1022.40
2019-03-27T05:19:37.491Z,1022.36
2019-03-27T05:20:37.480Z,1022.38
2019-03-27T05:21:37.469Z,1022.40
2019-03-27T05:22:37.458Z,1022.39
2019-03-27T05:23:37.448Z,1022.38
2019-03-27T05:24:37.463Z,1022.39
2019-03-27T05:25:37.428Z,1022.40
2019-03-27T05:26:37.418Z,1022.42
2019-03-27T05:27:37.410Z,1022.39
2019-03-27T05:28:37.395Z,1022.41
2019-03-27T05:29:37.420Z,1022.40
2019-03-27T05:30:37.372Z,1022.38
2019-03-27T05:31:37.360Z,1022.45
2019-03-27T05:32:37.352Z,1022.43
2019-03-27T05:33:37.342Z,1022.42
2019-03-27T05:34:37.330Z,1022.43
2019-03-27T05:35:37.346Z,1022.45
2019-03-27T05:36:37.311Z,1022.43
2019-03-27T05:37:37.297Z,1022.45
2019-03-27T05:38:37.288Z,1022.47
2019-03-27T05:39:37.276Z,1022.48
2019-03-27T05:40:37.290Z,1022.50
2019-03-27T05:41:37.255Z,1022.51
2019-03-27T05:42:37.244Z,1022.54
2019-03-27T05:43:37.232Z,1022.52
2019-03-27T05:44:37.224Z,1022.56
2019-03-27T05:45:37.237Z,1022.52
2019-03-27T05:46:37.201Z,1022.59
2019-03-27T05:47:37.190Z,1022.55
2019-03-27T05:48:37.181Z,1022.55
2019-03-27T05:49:37.170Z,1022.57
2019-03-27T05:50:37.184Z,1022.63
2019-03-27T05:51:37.149Z,1022.59
2019-03-27T05:52:37.136Z,1022.58
2019-03-27T05:53:37.128Z,1022.61
2019-03-27T05:54:37.115Z,1022.57
2019-03-27T05:55:37.147Z,1022.62
2019-03-27T05:56:37.099Z,1022.61
2019-03-27T05:57:37.084Z,1022.57
2019-03-27T05:58:37.072Z,1022.57
2019-03-27T05:59:37.062Z,1022.61
2019-03-27T06:00:37.053Z,1022.63
2019-03-27T06:01:37.078Z,1022.64
2019-03-27T06:02:37.030Z,1022.65
2019-03-27T06:03:37.019Z,1022.70
2019-03-27T06:04:37.010Z,1022.72
2019-03-27T06:05:36.998Z,1022.73
2019-03-27T06:06:36.988Z,1022.72
2019-03-27T06:07:37.000Z,1022.74
2019-03-27T06:08:36.966Z,1022.75
2019-03-27T06:09:36.955Z,1022.77
2019-03-27T06:10:36.944Z,1022.81
2019-03-27T06:11:36.933Z,1022.78
2019-03-27T06:12:36.948Z,1022.81
2019-03-27T06:13:36.920Z,1022.78
2019-03-27T06:14:36.902Z,1022.80
2019-03-27T06:15:36.890Z,1022.82
2019-03-27T06:16:36.881Z,1022.80
2019-03-27T06:17:36.894Z,1022.84
2019-03-27T06:18:36.858Z,1022.82
2019-03-27T06:19:36.847Z,1022.83
2019-03-27T06:20:36.837Z,1022.85
2019-03-27T06:21:36.825Z,1022.79
2019-03-27T06:22:36.839Z,1022.86
2019-03-27T06:23:36.804Z,1022.83
2019-03-27T06:24:36.793Z,1022.87
2019-03-27T06:25:36.784Z,1022.89
2019-03-27T06:26:36.776Z,1022.91
2019-03-27T06:27:36.798Z,1022.91
2019-03-27T06:28:36.750Z,1022.88
2019-03-27T06:29:36.741Z,1022.94
2019-03-27T06:30:36.732Z,1022.92
2019-03-27T06:31:36.719Z,1022.88
2019-03-27T06:32:36.706Z,1022.95
2019-03-27T06:33:36.730Z,1022.97
2019-03-27T06:34:36.684Z,1022.98
2019-03-27T06:35:36.677Z,1022.98
2019-03-27T06:36:36.662Z,1023.00
2019-03-27T06:37:36.651Z,1022.99
2019-03-27T06:38:36.639Z,1023.00
2019-03-27T06:39:36.669Z,1023.00
2019-03-27T06:40:39.601Z,1022.99
2019-03-27T06:41:36.610Z,1022.93
2019-03-27T06:42:36.596Z,1022.97
2019-03-27T06:43:36.586Z,1022.94
2019-03-27T06:44:36.575Z,1022.93
2019-03-27T06:45:36.588Z,1022.93
2019-03-27T06:46:36.553Z,1022.93
2019-03-27T06:47:36.541Z,1022.95
2019-03-27T06:48:36.530Z,1022.90
2019-03-27T06:49:36.518Z,1022.96
2019-03-27T06:50:36.533Z,1022.93
2019-03-27T06:51:40.292Z,1022.91
2019-03-27T06:52:36.487Z,1022.97
2019-03-27T06:53:36.473Z,1022.95
2019-03-27T06:54:36.463Z,1022.96
2019-03-27T06:55:36.479Z,1022.98
2019-03-27T06:56:36.443Z,1022.95
2019-03-27T06:57:36.430Z,1022.96
2019-03-27T06:58:36.418Z,1022.97
2019-03-27T06:59:36.407Z,1022.95
2019-03-27T07:00:36.426Z,1022.97
2019-03-27T07:01:36.386Z,1023.00
2019-03-27T07:02:36.376Z,1022.94
2019-03-27T07:03:36.363Z,1022.94
2019-03-27T07:04:36.353Z,1022.92
2019-03-27T07:05:36.366Z,1022.97
2019-03-27T07:06:36.330Z,1022.98
2019-03-27T07:07:36.318Z,1022.98
2019-03-27T07:08:36.305Z,1022.95
2019-03-27T07:09:36.295Z,1022.94
2019-03-27T07:10:36.311Z,1022.94
2019-03-27T07:11:36.273Z,1022.95
2019-03-27T07:12:36.263Z,1022.99
2019-03-27T07:13:36.251Z,1023.06
2019-03-27T07:14:36.245Z,1023.05
2019-03-27T07:15:36.265Z,1023.05
2019-03-27T07:16:36.219Z,1023.08
2019-03-27T07:17:36.209Z,1023.08
2019-03-27T07:18:40.351Z,1023.07
2019-03-27T07:19:36.191Z,1023.10
2019-03-27T07:20:36.174Z,1023.05
2019-03-27T07:21:36.205Z,1023.08
2019-03-27T07:22:36.154Z,1023.02
2019-03-27T07:23:36.153Z,1023.08
2019-03-27T07:24:36.134Z,1023.09
2019-03-27T07:25:36.123Z,1023.06
2019-03-27T07:26:36.111Z,1023.11
2019-03-27T07:27:36.127Z,1023.10
2019-03-27T07:28:36.091Z,1023.11
2019-03-27T07:29:36.083Z,1023.11
2019-03-27T07:30:36.075Z,1023.13
2019-03-27T07:31:36.109Z,1023.14
2019-03-27T07:32:36.077Z,1023.18
2019-03-27T07:33:36.040Z,1023.15
2019-03-27T07:34:36.027Z,1023.18
2019-03-27T07:35:36.017Z,1023.19
2019-03-27T07:36:36.007Z,1023.17
2019-03-27T07:37:36.031Z,1023.18
2019-03-27T07:38:35.981Z,1023.22
2019-03-27T07:39:35.976Z,1023.24
2019-03-27T07:40:35.960Z,1023.27
2019-03-27T07:41:35.950Z,1023.27
2019-03-27T07:42:35.938Z,1023.26
2019-03-27T07:44:05.559Z,1023.25
2019-03-27T07:44:35.916Z,1023.29
2019-03-27T07:45:35.906Z,1023.27
2019-03-27T07:46:35.892Z,1023.28
2019-03-27T07:47:35.881Z,1023.29
2019-03-27T07:48:35.872Z,1023.32
2019-03-27T07:49:35.896Z,1023.35
2019-03-27T07:50:35.848Z,1023.38
2019-03-27T07:51:35.837Z,1023.29
2019-03-27T07:52:35.829Z,1023.39
2019-03-27T07:53:35.817Z,1023.34
2019-03-27T07:54:35.803Z,1023.32
2019-03-27T07:55:35.831Z,1023.38
2019-03-27T07:56:35.784Z,1023.32
2019-03-27T07:57:35.769Z,1023.33
2019-03-27T07:58:35.758Z,1023.31
2019-03-27T07:59:35.750Z,1023.27
2019-03-27T08:00:35.760Z,1023.40
2019-03-27T08:01:35.725Z,1023.39
2019-03-27T08:02:35.713Z,1023.40
2019-03-27T08:03:35.702Z,1023.39
2019-03-27T08:04:35.693Z,1023.41
2019-03-27T08:05:35.706Z,1023.45
2019-03-27T08:06:35.670Z,1023.51
2019-03-27T08:07:35.657Z,1023.51
2019-03-27T08:08:35.648Z,1023.49
2019-03-27T08:09:35.635Z,1023.55
2019-03-27T08:10:35.651Z,1023.47
2019-03-27T08:11:35.733Z,1023.47
2019-03-27T08:12:35.602Z,1023.49
2019-03-27T08:13:35.591Z,1023.48
2019-03-27T08:14:35.580Z,1023.47
2019-03-27T08:15:35.605Z,1023.44
2019-03-27T08:16:35.565Z,1023.49
2019-03-27T08:17:35.549Z,1023.46
2019-03-27T08:18:35.534Z,1023.45
2019-03-27T08:19:35.523Z,1023.42
2019-03-27T08:20:35.513Z,1023.47
2019-03-27T08:21:35.561Z,1023.50
2019-03-27T08:22:35.490Z,1023.47
2019-03-27T08:23:35.478Z,1023.46
2019-03-27T08:24:35.468Z,1023.47
2019-03-27T08:25:35.458Z,1023.45
2019-03-27T08:26:35.447Z,1023.47
2019-03-27T08:27:35.460Z,1023.44
2019-03-27T08:28:35.505Z,1023.45
2019-03-27T08:29:35.414Z,1023.48
2019-03-27T08:30:35.401Z,1023.46
2019-03-27T08:31:35.396Z,1023.48
2019-03-27T08:32:37.524Z,1023.49
2019-03-27T08:33:35.369Z,1023.54
2019-03-27T08:34:35.356Z,1023.47
2019-03-27T08:35:35.349Z,1023.50
2019-03-27T08:36:35.340Z,1023.54
2019-03-27T08:37:35.327Z,1023.50
2019-03-27T08:38:35.400Z,1023.56
2019-03-27T08:39:35.301Z,1023.50
2019-03-27T08:40:35.292Z,1023.58
2019-03-27T08:41:35.287Z,1023.54
2019-03-27T08:42:35.269Z,1023.54
2019-03-27T08:43:35.286Z,1023.52
2019-03-27T08:44:35.249Z,1023.53
2019-03-27T08:45:35.235Z,1023.55
2019-03-27T08:46:35.223Z,1023.57
2019-03-27T08:47:35.212Z,1023.54
2019-03-27T08:48:35.230Z,1023.50
2019-03-27T08:49:35.189Z,1023.55
2019-03-27T08:50:35.178Z,1023.56
2019-03-27T08:51:35.168Z,1023.56
2019-03-27T08:52:35.155Z,1023.60
2019-03-27T08:53:35.185Z,1023.58
2019-03-27T08:54:35.132Z,1023.65
2019-03-27T08:55:35.122Z,1023.66
2019-03-27T08:56:35.118Z,1023.68
2019-03-27T08:57:35.099Z,1023.65
2019-03-27T08:58:35.088Z,1023.64
2019-03-27T08:59:35.117Z,1023.66
2019-03-27T09:00:35.071Z,1023.59
2019-03-27T09:01:35.057Z,1023.57
2019-03-27T09:02:35.044Z,1023.59
2019-03-27T09:03:35.031Z,1023.53
2019-03-27T09:04:35.023Z,1023.53
2019-03-27T09:05:35.036Z,1023.53
2019-03-27T09:06:35.006Z,1023.49
2019-03-27T09:07:34.989Z,1023.44
2019-03-27T09:08:34.982Z,1023.48
2019-03-27T09:09:34.971Z,1023.48
2019-03-27T09:10:34.982Z,1023.56
2019-03-27T09:11:34.946Z,1023.52
2019-03-27T09:12:34.939Z,1023.60
2019-03-27T09:13:34.929Z,1023.57
2019-03-27T09:14:34.915Z,1023.59
2019-03-27T09:15:34.942Z,1023.62
2019-03-27T09:16:34.893Z,1023.62
2019-03-27T09:17:34.881Z,1023.64
2019-03-27T09:18:34.873Z,1023.64
2019-03-27T09:19:36.362Z,1023.61
2019-03-27T09:20:34.849Z,1023.59
2019-03-27T09:21:34.864Z,1023.60
2019-03-27T09:22:34.828Z,1023.67
2019-03-27T09:23:34.821Z,1023.66
2019-03-27T09:24:34.810Z,1023.63
2019-03-27T09:25:34.798Z,1023.63
2019-03-27T09:26:34.809Z,1023.63
2019-03-27T09:27:34.796Z,1023.69
2019-03-27T09:28:34.764Z,1023.65
2019-03-27T09:29:34.753Z,1023.64
2019-03-27T09:30:34.750Z,1023.64
2019-03-27T09:31:44.731Z,1023.60
2019-03-27T09:32:35.727Z,1023.63
2019-03-27T09:33:34.708Z,1023.63
2019-03-27T09:34:34.700Z,1023.65
2019-03-27T09:35:34.685Z,1023.62
2019-03-27T09:36:34.673Z,1023.64
2019-03-27T09:37:34.724Z,1023.62
2019-03-27T09:38:34.653Z,1023.71
2019-03-27T09:39:34.642Z,1023.63
2019-03-27T09:40:34.631Z,1023.67
2019-03-27T09:41:34.620Z,1023.69
2019-03-27T09:42:34.608Z,1023.64
2019-03-27T09:43:34.625Z,1023.64
2019-03-27T09:44:34.589Z,1023.65
2019-03-27T09:45:34.575Z,1023.66
2019-03-27T09:46:34.564Z,1023.66
2019-03-27T09:47:34.905Z,1023.69
2019-03-27T09:48:34.577Z,1023.72
2019-03-27T09:49:48.635Z,1023.72
2019-03-27T09:50:35.521Z,1023.70
2019-03-27T09:51:34.509Z,1023.72
2019-03-27T09:52:34.498Z,1023.71
2019-03-27T09:53:34.491Z,1023.69
2019-03-27T09:54:34.500Z,1023.69
2019-03-27T09:55:34.463Z,1023.68
2019-03-27T09:56:34.454Z,1023.74
2019-03-27T09:57:34.447Z,1023.64
2019-03-27T09:58:34.430Z,1023.71
2019-03-27T09:59:34.460Z,1023.66
2019-03-27T10:00:34.409Z,1023.74
2019-03-27T10:01:34.410Z,1023.73
2019-03-27T10:02:34.387Z,1023.77
2019-03-27T10:03:34.375Z,1023.78
2019-03-27T10:04:34.364Z,1023.78
2019-03-27T10:05:34.409Z,1023.74
2019-03-27T10:06:34.350Z,1023.80
2019-03-27T10:07:34.329Z,1023.79
2019-03-27T10:08:34.316Z,1023.78
2019-03-27T10:09:34.308Z,1023.81
2019-03-27T10:10:34.348Z,1023.77
2019-03-27T10:11:34.286Z,1023.75
2019-03-27T10:12:34.275Z,1023.74
2019-03-27T10:13:34.262Z,1023.72
2019-03-27T10:14:34.253Z,1023.69
2019-03-27T10:15:34.274Z,1023.70
2019-03-27T10:16:34.227Z,1023.71
2019-03-27T10:17:34.217Z,1023.71
2019-03-27T10:18:34.207Z,1023.74
2019-03-27T10:19:34.195Z,1023.72
2019-03-27T10:20:34.208Z,1023.75
2019-03-27T10:21:34.173Z,1023.76
2019-03-27T10:22:34.161Z,1023.75
2019-03-27T10:23:34.150Z,1023.73
2019-03-27T10:24:34.138Z,1023.77
2019-03-27T10:25:34.164Z,1023.76
2019-03-27T10:26:34.117Z,1023.77
2019-03-27T10:27:34.109Z,1023.81
2019-03-27T10:28:34.095Z,1023.81
2019-03-27T10:29:34.083Z,1023.79
2019-03-27T10:30:34.072Z,1023.82
2019-03-27T10:31:34.085Z,1023.78
2019-03-27T10:32:34.048Z,1023.81
2019-03-27T10:33:34.038Z,1023.80
2019-03-27T10:34:34.027Z,1023.83
2019-03-27T10:35:34.017Z,1023.82
2019-03-27T10:36:34.034Z,1023.83
2019-03-27T10:37:33.995Z,1023.83
2019-03-27T10:38:33.982Z,1023.83
2019-03-27T10:39:33.971Z,1023.84
2019-03-27T10:40:33.963Z,1023.83
2019-03-27T10:41:33.976Z,1023.81
2019-03-27T10:42:33.946Z,1023.82
2019-03-27T10:43:33.927Z,1023.83
2019-03-27T10:44:33.916Z,1023.79
2019-03-27T10:45:33.910Z,1023.81
2019-03-27T10:46:33.920Z,1023.90
2019-03-27T10:47:33.886Z,1023.85
2019-03-27T10:48:33.872Z,1023.85
2019-03-27T10:49:34.557Z,1023.85
2019-03-27T10:50:33.851Z,1023.84
2019-03-27T10:51:33.887Z,1023.81
2019-03-27T10:52:33.828Z,1023.82
2019-03-27T10:53:33.818Z,1023.84
2019-03-27T10:54:33.807Z,1023.80
2019-03-27T10:55:34.574Z,1023.81
2019-03-27T10:56:33.785Z,1023.92
2019-03-27T10:57:33.813Z,1023.81
2019-03-27T10:58:33.767Z,1023.83
2019-03-27T10:59:33.751Z,1023.89
2019-03-27T11:00:33.742Z,1023.88
2019-03-27T11:01:33.733Z,1023.86
2019-03-27T11:02:33.719Z,1023.85
2019-03-27T11:03:33.745Z,1023.94
2019-03-27T11:04:33.697Z,1023.93
2019-03-27T11:05:33.684Z,1023.90
2019-03-27T11:06:33.676Z,1023.88
2019-03-27T11:07:33.666Z,1023.86
2019-03-27T11:08:33.654Z,1023.83
2019-03-27T11:09:33.667Z,1023.80
2019-03-27T11:10:33.631Z,1023.81
2019-03-27T11:11:33.619Z,1023.84
2019-03-27T11:12:33.611Z,1023.82
2019-03-27T11:13:34.554Z,1023.89
2019-03-27T11:14:38.224Z,1023.83
2019-03-27T11:15:33.576Z,1023.80
2019-03-27T11:16:33.565Z,1023.78
2019-03-27T11:17:33.552Z,1023.80
2019-03-27T11:18:33.543Z,1023.80
2019-03-27T11:19:33.856Z,1023.82
2019-03-27T11:20:33.521Z,1023.80
2019-03-27T11:21:33.509Z,1023.78
2019-03-27T11:22:33.497Z,1023.82
2019-03-27T11:23:33.493Z,1023.81
2019-03-27T11:24:33.478Z,1023.81
2019-03-27T11:25:33.584Z,1023.78
2019-03-27T11:26:33.452Z,1023.74
2019-03-27T11:27:33.441Z,1023.74
2019-03-27T11:28:33.431Z,1023.79
2019-03-27T11:29:33.423Z,1023.82
2019-03-27T11:30:33.435Z,1023.77
2019-03-27T11:31:33.403Z,1023.81
2019-03-27T11:32:33.387Z,1023.82
2019-03-27T11:33:33.377Z,1023.79
2019-03-27T11:34:33.361Z,1023.79
2019-03-27T11:35:33.377Z,1023.84
2019-03-27T11:36:35.192Z,1023.81
2019-03-27T11:37:33.328Z,1023.78
2019-03-27T11:38:33.318Z,1023.86
2019-03-27T11:39:33.309Z,1023.79
2019-03-27T11:40:33.323Z,1023.80
2019-03-27T11:41:33.288Z,1023.85
2019-03-27T11:42:33.278Z,1023.83
2019-03-27T11:43:33.267Z,1023.78
2019-03-27T11:44:33.259Z,1023.79
2019-03-27T11:45:33.269Z,1023.74
2019-03-27T11:46:33.270Z,1023.78
2019-03-27T11:47:33.220Z,1023.75
2019-03-27T11:48:33.211Z,1023.74
2019-03-27T11:49:33.199Z,1023.80
2019-03-27T11:50:44.211Z,1023.74
2019-03-27T11:51:34.175Z,1023.75
2019-03-27T11:52:33.164Z,1023.78
2019-03-27T11:53:33.153Z,1023.77
2019-03-27T11:54:33.149Z,1023.75
2019-03-27T11:55:33.133Z,1023.80
2019-03-27T11:56:33.147Z,1023.79
2019-03-27T11:57:33.111Z,1023.75
2019-03-27T11:58:33.101Z,1023.74
2019-03-27T11:59:33.089Z,1023.75
2019-03-27T12:00:33.079Z,1023.71
2019-03-27T12:01:39.650Z,1023.71
2019-03-27T12:02:34.056Z,1023.74
2019-03-27T12:03:33.045Z,1023.65
2019-03-27T12:04:33.035Z,1023.62
2019-03-27T12:05:33.024Z,1023.67